Time;durP1;ratioP1;P1;durP2;ratioP2;P2;SDS_P1;SDS_P2;PMS_P1;PMS_P2;Temp;Humidity;BMP_temperature;BMP_pressure;BME280_temperature;BME280_humidity;BME280_pressure;Samples;Min_cycle;Max_cycle;Signal;HPM_P1;HPM_P2
2022/11/20 00:00:09;;;;;;;24.87;15.70;;;-2.80;99.90;;;;;;5095768;28;20212;-81
2022/11/20 00:02:35;;;;;;;22.33;13.90;;;-2.80;99.90;;;;;;5100442;28;20196;-81
2022/11/20 00:05:02;;;;;;;21.83;13.63;;;-3.10;99.90;;;;;;5119552;28;20204;-81
2022/11/20 00:07:29;;;;;;;21.90;13.77;;;-3.10;99.90;;;;;;5119156;28;20223;-80
2022/11/20 00:09:56;;;;;;;23.87;14.53;;;-3.00;99.90;;;;;;5079047;28;20202;-81
2022/11/20 00:12:24;;;;;;;22.43;13.60;;;-2.90;99.90;;;;;;5078693;28;20222;-80
2022/11/20 00:14:50;;;;;;;22.23;13.67;;;-3.00;99.90;;;;;;5107447;28;20291;-81
2022/11/20 00:17:17;;;;;;;21.43;12.40;;;-3.00;99.90;;;;;;5119206;28;20220;-80
2022/11/20 00:19:44;;;;;;;25.03;14.30;;;-2.90;99.90;;;;;;5119538;28;20218;-82
2022/11/20 00:22:11;;;;;;;22.17;13.63;;;-2.90;99.90;;;;;;5110846;28;20247;-80
2022/11/20 00:24:37;;;;;;;21.83;13.73;;;-2.90;99.90;;;;;;5119245;28;20215;-80
2022/11/20 00:27:04;;;;;;;24.40;14.03;;;-3.00;99.90;;;;;;5119339;28;20626;-82
2022/11/20 00:29:32;;;;;;;21.73;13.13;;;-3.00;99.90;;;;;;5119030;28;20664;-80
2022/11/20 00:31:59;;;;;;;21.47;12.43;;;-3.10;99.90;;;;;;5109045;28;20243;-80
2022/11/20 00:34:26;;;;;;;21.13;13.23;;;-3.10;99.90;;;;;;5120243;28;20207;-80
2022/11/20 00:36:52;;;;;;;20.73;12.43;;;-3.30;99.90;;;;;;5119314;28;20189;-80
2022/11/20 00:39:19;;;;;;;21.47;13.03;;;-3.30;99.90;;;;;;5111654;28;20217;-80
2022/11/20 00:41:46;;;;;;;22.40;12.43;;;-3.40;99.90;;;;;;5111461;28;20201;-81
2022/11/20 00:44:13;;;;;;;20.60;12.87;;;-3.30;99.90;;;;;;5102660;28;20202;-81
2022/11/20 00:46:41;;;;;;;21.63;12.67;;;-3.20;99.90;;;;;;5101934;28;20193;-80
2022/11/20 00:49:08;;;;;;;23.73;15.07;;;-3.10;99.90;;;;;;5119106;28;20223;-82
2022/11/20 00:51:34;;;;;;;21.83;13.00;;;-3.20;99.90;;;;;;5104417;28;20200;-80
2022/11/20 00:54:01;;;;;;;23.10;13.90;;;-3.20;99.90;;;;;;5098686;28;20221;-80
2022/11/20 00:56:28;;;;;;;21.93;12.63;;;-3.10;99.90;;;;;;5100154;28;20197;-81
2022/11/20 00:58:55;;;;;;;25.00;12.53;;;-3.10;99.90;;;;;;5097991;28;20224;-80
2022/11/20 01:01:24;;;;;;;22.60;12.47;;;-3.20;99.90;;;;;;5100966;28;20208;-81
2022/11/20 01:03:54;;;;;;;24.13;13.03;;;-3.20;99.90;;;;;;5118612;28;20229;-80
2022/11/20 01:06:22;;;;;;;21.83;12.20;;;-3.20;99.90;;;;;;5118505;28;20207;-81
2022/11/20 01:08:50;;;;;;;21.53;12.10;;;-3.30;99.90;;;;;;5113249;28;20210;-80
2022/11/20 01:11:19;;;;;;;22.83;12.60;;;-3.30;99.90;;;;;;5098120;28;20198;-81
2022/11/20 01:13:46;;;;;;;21.73;12.37;;;-3.40;99.90;;;;;;5098137;28;20222;-80
2022/11/20 01:16:15;;;;;;;20.30;12.40;;;-3.40;99.90;;;;;;5090393;28;20202;-80
2022/11/20 01:18:44;;;;;;;18.70;11.87;;;-3.30;99.90;;;;;;5095510;28;20213;-80
2022/11/20 01:21:13;;;;;;;22.90;12.83;;;-3.30;99.90;;;;;;5095608;28;20245;-80
2022/11/20 01:23:42;;;;;;;20.50;11.63;;;-3.20;99.90;;;;;;5117133;28;20185;-80
2022/11/20 01:26:11;;;;;;;19.77;11.80;;;-3.30;99.90;;;;;;5092363;28;20216;-80
2022/11/20 01:28:38;;;;;;;20.30;12.07;;;-3.20;99.90;;;;;;5097193;28;20709;-81
2022/11/20 01:31:12;;;;;;;20.20;12.27;;;-3.10;99.90;;;;;;5104611;28;20281;-80
2022/11/20 01:33:40;;;;;;;21.73;12.67;;;-3.20;99.90;;;;;;5092520;28;20596;-80
2022/11/20 01:36:08;;;;;;;19.97;11.97;;;-3.20;99.90;;;;;;5098027;28;20201;-81
2022/11/20 01:38:37;;;;;;;20.43;12.20;;;-3.30;99.90;;;;;;5096563;28;20590;-81
2022/11/20 01:41:04;;;;;;;19.50;11.73;;;-3.50;99.90;;;;;;5095349;28;20202;-81
2022/11/20 01:43:30;;;;;;;20.30;11.93;;;-3.50;99.90;;;;;;5104370;28;20201;-81
2022/11/20 01:46:03;;;;;;;23.00;12.57;;;-3.50;99.90;;;;;;5111247;28;20206;-80
2022/11/20 01:48:36;;;;;;;20.77;11.83;;;-3.60;99.90;;;;;;5097275;28;20231;-81
2022/11/20 01:51:04;;;;;;;20.57;12.10;;;-3.50;99.90;;;;;;5096601;28;20201;-80
2022/11/20 01:53:36;;;;;;;22.40;12.63;;;-3.40;99.90;;;;;;5081509;28;20233;-81
2022/11/20 01:56:08;;;;;;;22.50;12.13;;;-3.40;99.90;;;;;;5087195;28;20203;-79
2022/11/20 01:58:43;;;;;;;23.00;13.10;;;-3.30;99.90;;;;;;5100158;28;20317;-80
2022/11/20 02:01:10;;;;;;;22.23;12.57;;;-3.20;99.90;;;;;;5095325;28;20197;-81
2022/11/20 02:03:37;;;;;;;22.10;12.80;;;-3.20;99.90;;;;;;5095656;28;20281;-79
2022/11/20 02:06:11;;;;;;;21.10;12.47;;;-3.10;99.90;;;;;;5096712;28;20212;-81
2022/11/20 02:08:38;;;;;;;19.90;12.43;;;-3.20;99.90;;;;;;5092928;28;20232;-80
2022/11/20 02:11:07;;;;;;;20.03;12.00;;;-3.20;99.90;;;;;;5096776;28;20205;-80
2022/11/20 02:13:43;;;;;;;20.80;12.27;;;-3.30;99.90;;;;;;5092666;28;20224;-80
2022/11/20 02:16:15;;;;;;;19.73;12.30;;;-3.30;99.90;;;;;;5090635;28;20626;-80
2022/11/20 02:18:43;;;;;;;21.27;12.53;;;-3.40;99.90;;;;;;5096534;28;20236;-81
2022/11/20 02:21:28;;;;;;;23.10;12.63;;;-3.40;99.90;;;;;;5097977;28;20193;-80
2022/11/20 02:24:09;;;;;;;21.13;12.70;;;-3.50;99.90;;;;;;5112928;28;20234;-80
2022/11/20 02:26:42;;;;;;;22.50;11.93;;;-3.50;99.90;;;;;;5115302;28;20250;-79
2022/11/20 02:29:08;;;;;;;19.63;12.20;;;-3.50;99.90;;;;;;5112307;28;20222;-80
2022/11/20 02:31:38;;;;;;;20.60;12.40;;;-3.50;99.90;;;;;;5110114;28;20198;-79
2022/11/20 02:34:05;;;;;;;21.07;12.20;;;-3.50;99.90;;;;;;5097025;28;20216;-79
2022/11/20 02:36:33;;;;;;;21.03;12.20;;;-3.40;99.90;;;;;;5096568;28;20229;-80
2022/11/20 02:39:00;;;;;;;18.93;11.07;;;-3.50;99.90;;;;;;5087429;28;20228;-80
2022/11/20 02:41:34;;;;;;;20.80;11.87;;;-3.50;99.90;;;;;;5114970;28;20197;-80
2022/11/20 02:44:01;;;;;;;17.93;11.73;;;-3.50;99.90;;;;;;5075095;28;20206;-79
2022/11/20 02:46:28;;;;;;;20.47;12.20;;;-3.50;99.90;;;;;;5076243;28;20202;-81
2022/11/20 02:48:55;;;;;;;19.10;11.37;;;-3.60;99.90;;;;;;5092370;28;20236;-80
2022/11/20 02:51:23;;;;;;;18.57;11.10;;;-3.90;99.90;;;;;;5104001;28;20231;-80
2022/11/20 02:53:49;;;;;;;18.43;10.80;;;-4.00;99.90;;;;;;5095654;28;20278;-80
2022/11/20 02:56:16;;;;;;;21.10;11.80;;;-3.90;99.90;;;;;;5095510;28;20213;-81
2022/11/20 02:58:44;;;;;;;17.57;11.27;;;-3.90;99.90;;;;;;5105794;28;20223;-81
2022/11/20 03:01:11;;;;;;;18.13;10.83;;;-3.90;99.90;;;;;;5092733;28;20206;-81
2022/11/20 03:03:38;;;;;;;20.00;11.27;;;-3.90;99.90;;;;;;5099381;28;20202;-79
2022/11/20 03:06:05;;;;;;;20.83;11.73;;;-3.70;99.90;;;;;;5109855;28;20193;-81
2022/11/20 03:08:32;;;;;;;19.00;12.03;;;-3.60;99.90;;;;;;5093297;28;20304;-79
2022/11/20 03:11:03;;;;;;;19.20;11.20;;;-3.60;99.90;;;;;;5095445;28;20221;-81
2022/11/20 03:13:30;;;;;;;21.33;12.20;;;-3.70;99.90;;;;;;5087131;28;20213;-80
2022/11/20 03:15:58;;;;;;;17.80;10.77;;;-3.70;99.90;;;;;;5087405;28;20216;-79
2022/11/20 03:18:28;;;;;;;17.63;10.50;;;-3.60;99.90;;;;;;5095097;28;20238;-80
2022/11/20 03:20:58;;;;;;;18.37;11.50;;;-3.60;99.90;;;;;;5102908;28;20654;-80
2022/11/20 03:23:25;;;;;;;18.93;11.33;;;-3.60;99.90;;;;;;5096986;28;20650;-79
2022/11/20 03:25:52;;;;;;;20.63;11.67;;;-3.60;99.90;;;;;;5093611;28;20202;-81
2022/11/20 03:28:19;;;;;;;19.27;11.47;;;-3.60;99.90;;;;;;5112568;28;20217;-81
2022/11/20 03:30:46;;;;;;;18.20;11.00;;;-3.70;99.90;;;;;;5100247;28;20676;-79
2022/11/20 03:33:14;;;;;;;19.10;10.87;;;-3.70;99.90;;;;;;5092961;28;20217;-81
2022/11/20 03:35:40;;;;;;;19.77;10.80;;;-3.80;99.90;;;;;;5087951;28;20209;-80
2022/11/20 03:38:07;;;;;;;18.53;11.47;;;-3.70;99.90;;;;;;5091167;28;20214;-81
2022/11/20 03:40:36;;;;;;;20.87;11.57;;;-3.70;99.90;;;;;;5093791;28;20201;-80
2022/11/20 03:43:03;;;;;;;20.73;11.37;;;-3.70;99.90;;;;;;5094548;28;20204;-81
2022/11/20 03:45:29;;;;;;;20.23;11.97;;;-3.60;99.90;;;;;;5093217;28;20201;-81
2022/11/20 03:47:56;;;;;;;18.20;11.47;;;-3.60;99.90;;;;;;5100896;28;20224;-81
2022/11/20 03:50:24;;;;;;;20.03;11.40;;;-3.70;99.90;;;;;;5115323;28;20196;-81
2022/11/20 03:52:51;;;;;;;19.03;11.30;;;-3.70;99.90;;;;;;5097556;28;20589;-80
2022/11/20 03:55:18;;;;;;;18.80;10.30;;;-3.80;99.90;;;;;;5115320;28;20657;-80
2022/11/20 03:57:45;;;;;;;19.17;11.53;;;-3.70;99.90;;;;;;5108662;28;20227;-79
2022/11/20 04:00:13;;;;;;;18.10;10.47;;;-3.80;99.90;;;;;;5074862;28;20202;-79
2022/11/20 04:02:40;;;;;;;19.73;11.80;;;-3.70;99.90;;;;;;5109047;28;20678;-81
2022/11/20 04:05:07;;;;;;;21.40;11.17;;;-3.60;99.90;;;;;;5093117;28;20204;-80
2022/11/20 04:07:36;;;;;;;20.50;11.30;;;-3.50;99.90;;;;;;5095742;28;20221;-81
2022/11/20 04:10:04;;;;;;;21.10;11.77;;;-3.40;99.90;;;;;;5097881;28;20293;-79
2022/11/20 04:12:33;;;;;;;19.63;11.70;;;-3.40;99.90;;;;;;5095239;28;20258;-80
2022/11/20 04:15:00;;;;;;;18.97;11.43;;;-3.30;99.90;;;;;;5115205;28;20221;-80
2022/11/20 04:17:26;;;;;;;19.13;10.77;;;-3.30;99.90;;;;;;5104664;28;20224;-80
2022/11/20 04:19:53;;;;;;;18.27;10.67;;;-3.40;99.90;;;;;;5092361;28;20311;-80
2022/11/20 04:22:20;;;;;;;21.67;12.33;;;-3.40;99.90;;;;;;5075894;28;20206;-79
2022/11/20 04:24:48;;;;;;;18.23;10.80;;;-3.40;99.90;;;;;;5106075;28;20189;-79
2022/11/20 04:27:15;;;;;;;19.47;11.07;;;-3.40;99.90;;;;;;5112680;28;20217;-79
2022/11/20 04:29:42;;;;;;;18.40;10.47;;;-3.30;99.90;;;;;;5098724;28;20212;-81
2022/11/20 04:32:08;;;;;;;19.63;11.17;;;-3.30;99.90;;;;;;5094247;28;20216;-81
2022/11/20 04:34:35;;;;;;;18.73;11.07;;;-3.30;99.90;;;;;;5085106;28;20631;-80
2022/11/20 04:37:02;;;;;;;17.57;10.83;;;-3.20;99.90;;;;;;5088514;28;20207;-81
2022/11/20 04:39:29;;;;;;;17.60;10.23;;;-3.20;99.90;;;;;;5073899;28;20224;-79
2022/11/20 04:44:37;;;;;;;18.40;10.53;;;-3.30;99.90;;;;;;5112003;28;20200;-79
2022/11/20 04:47:04;;;;;;;18.77;11.37;;;-3.30;99.90;;;;;;5097523;28;20295;-80
2022/11/20 04:49:31;;;;;;;18.10;10.60;;;-3.40;99.90;;;;;;5102012;28;20204;-79
2022/11/20 04:51:58;;;;;;;19.73;11.13;;;-3.40;99.90;;;;;;5105411;28;20596;-79
2022/11/20 04:54:25;;;;;;;19.40;10.97;;;-3.40;99.90;;;;;;5097938;28;20220;-79
2022/11/20 04:56:52;;;;;;;19.63;10.73;;;-3.50;99.90;;;;;;5097228;28;20206;-80
2022/11/20 04:59:20;;;;;;;18.23;10.70;;;-3.40;99.90;;;;;;5086769;28;20709;-79
2022/11/20 05:01:47;;;;;;;19.03;11.13;;;-3.40;99.90;;;;;;5116627;28;20201;-80
2022/11/20 05:04:13;;;;;;;18.03;10.73;;;-3.30;99.90;;;;;;5118118;28;20242;-80
2022/11/20 05:06:40;;;;;;;18.47;10.60;;;-3.30;99.90;;;;;;5103377;28;20201;-80
2022/11/20 05:09:07;;;;;;;18.70;10.73;;;-3.20;99.90;;;;;;5077102;28;20233;-79
2022/11/20 05:11:34;;;;;;;21.20;11.20;;;-3.20;99.90;;;;;;5077550;28;20206;-79
2022/11/20 05:14:01;;;;;;;18.47;10.67;;;-3.10;99.90;;;;;;5076692;28;20226;-79
2022/11/20 05:16:29;;;;;;;18.40;10.40;;;-3.10;99.90;;;;;;5099844;28;20239;-79
2022/11/20 05:18:58;;;;;;;18.97;11.07;;;-3.00;99.90;;;;;;5118084;28;20223;-81
2022/11/20 05:21:24;;;;;;;16.67;9.83;;;-3.00;99.90;;;;;;5112292;28;20206;-81
2022/11/20 05:23:51;;;;;;;18.90;10.53;;;-3.10;99.90;;;;;;5098488;28;20210;-80
2022/11/20 05:26:21;;;;;;;20.70;11.17;;;-3.10;99.90;;;;;;5098045;28;20213;-79
2022/11/20 05:28:48;;;;;;;27.27;16.63;;;-3.10;99.90;;;;;;5097643;28;20221;-80
2022/11/20 05:31:16;;;;;;;21.97;11.10;;;-3.10;99.90;;;;;;5097356;28;20212;-79
2022/11/20 05:33:45;;;;;;;16.83;10.20;;;-3.20;99.90;;;;;;5095926;28;20225;-79
2022/11/20 05:36:13;;;;;;;16.53;10.17;;;-3.10;99.90;;;;;;5092948;28;20206;-80
2022/11/20 05:38:40;;;;;;;17.70;10.40;;;-3.10;99.90;;;;;;5105985;28;20279;-79
2022/11/20 05:41:08;;;;;;;17.77;10.23;;;-3.20;99.90;;;;;;5093249;28;20650;-79
2022/11/20 05:43:36;;;;;;;17.30;9.70;;;-3.10;99.90;;;;;;5099460;28;20197;-79
2022/11/20 05:46:04;;;;;;;18.80;10.53;;;-3.10;99.90;;;;;;5099809;28;20669;-80
2022/11/20 05:48:31;;;;;;;18.30;10.37;;;-3.00;99.90;;;;;;5105278;28;20275;-78
2022/11/20 05:51:00;;;;;;;17.73;10.37;;;-2.90;99.90;;;;;;5103301;28;20194;-79
2022/11/20 05:53:26;;;;;;;18.17;10.03;;;-2.90;99.90;;;;;;5096308;28;20201;-80
2022/11/20 05:56:05;;;;;;;18.60;10.23;;;-2.90;99.90;;;;;;5096200;28;20194;-80
2022/11/20 05:58:33;;;;;;;17.50;9.80;;;-2.80;99.90;;;;;;5089209;28;20603;-80
2022/11/20 06:01:05;;;;;;;17.00;9.80;;;-2.80;99.90;;;;;;5086839;28;20201;-79
2022/11/20 06:03:32;;;;;;;19.87;11.73;;;-2.80;99.90;;;;;;5091877;28;20661;-80
2022/11/20 06:06:01;;;;;;;18.90;10.93;;;-2.70;99.90;;;;;;5100641;28;20615;-79
2022/11/20 06:08:29;;;;;;;17.27;9.63;;;-2.70;99.90;;;;;;5096474;28;20220;-80
2022/11/20 06:10:56;;;;;;;19.10;10.63;;;-2.60;99.90;;;;;;5107612;28;20204;-79
2022/11/20 06:13:22;;;;;;;20.27;11.20;;;-2.60;99.90;;;;;;5100223;28;20209;-80
2022/11/20 06:15:50;;;;;;;18.43;10.47;;;-2.50;99.90;;;;;;5104451;28;20567;-79
2022/11/20 06:18:17;;;;;;;18.93;10.27;;;-2.50;99.90;;;;;;5091416;28;20222;-82
2022/11/20 06:20:44;;;;;;;18.07;10.50;;;-2.50;99.90;;;;;;5098896;28;20586;-79
2022/11/20 06:23:12;;;;;;;18.43;11.00;;;-2.50;99.90;;;;;;5100201;28;20206;-79
2022/11/20 06:25:40;;;;;;;18.57;11.27;;;-2.50;99.90;;;;;;5093253;28;20194;-81
2022/11/20 06:28:07;;;;;;;18.37;10.73;;;-2.50;99.90;;;;;;5094860;28;20232;-81
2022/11/20 06:30:34;;;;;;;17.07;10.50;;;-2.50;99.90;;;;;;5105389;28;20665;-81
2022/11/20 06:33:00;;;;;;;18.80;10.47;;;-2.50;99.90;;;;;;5095399;28;20203;-80
2022/11/20 06:35:27;;;;;;;19.93;11.33;;;-2.40;99.90;;;;;;5087700;28;20221;-80
2022/11/20 06:37:54;;;;;;;17.90;10.70;;;-2.40;99.90;;;;;;5104675;28;20640;-81
2022/11/20 06:40:22;;;;;;;20.73;11.33;;;-2.40;99.90;;;;;;5089283;28;20217;-79
2022/11/20 06:42:49;;;;;;;19.50;11.17;;;-2.40;99.90;;;;;;5101124;28;20229;-81
2022/11/20 06:45:16;;;;;;;24.13;13.83;;;-2.30;99.90;;;;;;5097279;28;20197;-80
2022/11/20 06:47:42;;;;;;;19.50;10.90;;;-2.20;99.90;;;;;;5099474;28;20303;-81
2022/11/20 06:50:10;;;;;;;19.73;11.37;;;-2.20;99.90;;;;;;5096974;28;20576;-80
2022/11/20 06:52:36;;;;;;;19.17;11.63;;;-2.20;99.90;;;;;;5093734;28;20344;-79
2022/11/20 06:55:04;;;;;;;19.03;10.93;;;-2.20;99.90;;;;;;5104230;28;20699;-79
2022/11/20 06:57:32;;;;;;;19.03;11.37;;;-2.20;99.90;;;;;;5094966;28;20220;-79
2022/11/20 06:59:59;;;;;;;18.23;10.17;;;-2.20;99.90;;;;;;5101587;28;20197;-79
2022/11/20 07:02:26;;;;;;;19.70;10.53;;;-2.20;99.90;;;;;;5098139;28;20547;-80
2022/11/20 07:04:52;;;;;;;19.53;10.67;;;-2.10;99.90;;;;;;5106023;28;20204;-81
2022/11/20 07:07:19;;;;;;;18.17;10.53;;;-2.10;99.90;;;;;;5099236;28;20218;-79
2022/11/20 07:09:46;;;;;;;18.80;9.93;;;-2.10;99.90;;;;;;5107721;28;20197;-79
2022/11/20 07:12:13;;;;;;;18.27;11.37;;;-2.10;99.90;;;;;;5098910;28;20688;-78
2022/11/20 07:14:41;;;;;;;16.97;9.63;;;-2.10;99.90;;;;;;5085061;28;20224;-78
2022/11/20 07:17:07;;;;;;;18.67;10.13;;;-2.10;99.90;;;;;;5099347;28;20207;-78
2022/11/20 07:19:34;;;;;;;18.50;10.60;;;-2.00;99.90;;;;;;5106109;28;20197;-80
2022/11/20 07:22:01;;;;;;;21.60;11.90;;;-2.00;99.90;;;;;;5096621;28;20200;-79
2022/11/20 07:24:28;;;;;;;20.73;11.47;;;-2.00;99.90;;;;;;5087994;28;20197;-78
2022/11/20 07:26:55;;;;;;;17.77;10.90;;;-2.00;99.90;;;;;;5101880;28;21137;-79
2022/11/20 07:29:21;;;;;;;19.13;11.40;;;-1.90;99.90;;;;;;5102766;28;20705;-79
2022/11/20 07:31:49;;;;;;;18.77;10.20;;;-1.90;99.90;;;;;;5095452;28;20209;-78
2022/11/20 07:34:16;;;;;;;17.60;10.20;;;-1.80;99.90;;;;;;5094666;28;20253;-79
2022/11/20 07:36:43;;;;;;;18.00;10.17;;;-1.80;99.90;;;;;;5100820;28;20571;-81
2022/11/20 07:39:10;;;;;;;18.70;10.50;;;-1.80;99.90;;;;;;5102306;28;20225;-81
2022/11/20 07:41:36;;;;;;;18.80;10.20;;;-1.70;99.90;;;;;;5102706;28;20224;-79
2022/11/20 07:44:03;;;;;;;18.43;10.07;;;-1.70;99.90;;;;;;5089160;28;20190;-79
2022/11/20 07:46:30;;;;;;;18.97;9.90;;;-1.60;99.90;;;;;;5092739;28;20203;-80
2022/11/20 07:48:58;;;;;;;17.27;9.73;;;-1.60;99.90;;;;;;5099603;28;20221;-80
2022/11/20 07:51:25;;;;;;;17.43;10.13;;;-1.50;99.90;;;;;;5099968;28;20206;-80
2022/11/20 07:53:52;;;;;;;18.40;10.03;;;-1.50;99.90;;;;;;5098278;28;20655;-79
2022/11/20 07:56:19;;;;;;;17.10;9.77;;;-1.40;99.90;;;;;;5100148;28;20209;-80
2022/11/20 07:58:46;;;;;;;18.70;9.83;;;-1.50;99.90;;;;;;5106247;28;20224;-80
2022/11/20 08:01:12;;;;;;;19.30;9.40;;;-1.40;99.90;;;;;;5094438;28;20203;-79
2022/11/20 08:03:39;;;;;;;18.20;9.23;;;-1.50;99.90;;;;;;5099118;28;20192;-79
2022/11/20 08:06:09;;;;;;;17.97;9.93;;;-1.50;99.90;;;;;;5106279;28;20197;-79
2022/11/20 08:08:39;;;;;;;17.20;10.20;;;-1.50;99.90;;;;;;5099502;28;20600;-79
2022/11/20 08:16:34;;;;;;;22.93;11.77;;;-1.40;99.90;;;;;;5091246;28;20673;-79
2022/11/20 08:19:01;;;;;;;18.83;11.30;;;-1.40;99.90;;;;;;5087006;28;20219;-79
2022/11/20 08:21:30;;;;;;;17.97;10.40;;;-1.30;99.90;;;;;;5090882;28;20288;-80
2022/11/20 08:23:58;;;;;;;19.63;11.37;;;-1.30;99.90;;;;;;5097335;28;20227;-80
2022/11/20 08:26:25;;;;;;;17.33;10.33;;;-1.30;99.90;;;;;;5104420;28;20217;-80
2022/11/20 08:28:55;;;;;;;19.03;10.43;;;-1.30;99.90;;;;;;5099258;28;20232;-80
2022/11/20 08:31:22;;;;;;;17.23;9.27;;;-1.30;99.90;;;;;;5092233;28;20672;-81
2022/11/20 08:33:48;;;;;;;20.47;11.97;;;-1.20;99.90;;;;;;5100219;28;20198;-81
2022/11/20 08:36:15;;;;;;;18.03;11.33;;;-1.20;99.90;;;;;;5100926;28;20236;-83
2022/11/20 08:38:47;;;;;;;17.77;9.10;;;-1.20;99.90;;;;;;5090546;28;20218;-79
2022/11/20 08:41:26;;;;;;;19.40;10.23;;;-1.10;99.90;;;;;;5104331;28;20210;-80
2022/11/20 08:43:56;;;;;;;19.37;10.33;;;-1.20;99.90;;;;;;5098661;28;20202;-81
2022/11/20 08:46:24;;;;;;;17.27;9.20;;;-1.20;99.90;;;;;;5108319;28;20598;-80
2022/11/20 08:48:51;;;;;;;19.13;9.30;;;-1.20;99.90;;;;;;5096407;28;20214;-81
2022/11/20 08:51:18;;;;;;;18.23;9.70;;;-1.20;99.90;;;;;;5102417;28;20576;-80
2022/11/20 08:53:48;;;;;;;17.20;10.00;;;-1.30;99.90;;;;;;5105975;28;20197;-80
2022/11/20 08:56:15;;;;;;;19.57;11.00;;;-1.20;99.90;;;;;;5096001;28;20218;-80
2022/11/20 08:58:42;;;;;;;21.23;10.73;;;-1.30;99.90;;;;;;5102237;28;20217;-81
2022/11/20 09:01:09;;;;;;;17.30;10.40;;;-1.20;99.90;;;;;;5094554;28;20255;-80
2022/11/20 09:03:36;;;;;;;18.50;11.33;;;-1.20;99.90;;;;;;5112339;28;20208;-81
2022/11/20 09:06:06;;;;;;;20.13;10.57;;;-1.20;99.90;;;;;;5092985;28;20272;-81
2022/11/20 09:08:33;;;;;;;17.97;9.07;;;-1.20;99.90;;;;;;5094640;28;20220;-80
2022/11/20 09:11:04;;;;;;;19.57;9.90;;;-1.20;99.90;;;;;;5109153;28;20204;-80
2022/11/20 09:13:31;;;;;;;20.97;11.27;;;-1.10;99.90;;;;;;5106112;28;20204;-80
2022/11/20 09:16:00;;;;;;;18.67;11.10;;;-1.00;99.90;;;;;;5101131;28;20232;-81
2022/11/20 09:18:28;;;;;;;19.73;11.00;;;-1.00;99.90;;;;;;5112844;28;20218;-81
2022/11/20 09:20:58;;;;;;;19.03;9.67;;;-0.90;99.90;;;;;;5113342;28;20219;-81
2022/11/20 09:23:25;;;;;;;17.13;9.73;;;-0.80;99.90;;;;;;5106674;28;20205;-81
2022/11/20 09:25:52;;;;;;;18.40;9.87;;;-0.80;99.90;;;;;;5108556;28;20205;-81
2022/11/20 09:28:20;;;;;;;15.63;8.03;;;-0.60;99.90;;;;;;5106803;28;20236;-81
2022/11/20 09:30:47;;;;;;;15.90;7.73;;;-0.40;99.90;;;;;;5100737;28;20269;-81
2022/11/20 09:33:14;;;;;;;16.27;8.13;;;-0.30;99.90;;;;;;5104444;28;20280;-80
2022/11/20 09:35:41;;;;;;;16.80;8.10;;;-0.20;1.00;;;;;;5100031;28;20219;-81
2022/11/20 09:38:08;;;;;;;20.10;10.00;;;0.00;61.60;;;;;;5105918;28;20246;-81
2022/11/20 09:40:36;;;;;;;17.43;9.07;;;-0.10;99.90;;;;;;5102630;28;20198;-81
2022/11/20 09:43:11;;;;;;;17.60;9.50;;;-0.20;99.90;;;;;;5106937;28;20202;-80
2022/11/20 09:45:56;;;;;;;18.80;10.50;;;-0.20;99.90;;;;;;5096128;28;20205;-80
2022/11/20 09:48:37;;;;;;;17.33;10.70;;;-0.30;99.90;;;;;;5103188;28;20228;-79
2022/11/20 09:51:13;;;;;;;20.47;10.57;;;-0.20;99.90;;;;;;5104597;28;20200;-80
2022/11/20 09:53:53;;;;;;;19.93;10.17;;;-0.30;99.90;;;;;;5107711;28;20217;-80
2022/11/20 09:56:22;;;;;;;18.60;9.57;;;-0.30;99.90;;;;;;5108107;28;20675;-80
2022/11/20 09:58:51;;;;;;;17.70;8.90;;;-0.40;99.90;;;;;;5108600;28;20225;-79
2022/11/20 10:01:21;;;;;;;18.80;11.10;;;-0.50;99.90;;;;;;5112227;28;20205;-80
2022/11/20 10:03:55;;;;;;;19.33;9.37;;;-0.40;99.90;;;;;;5100438;28;20197;-79
2022/11/20 10:06:29;;;;;;;19.97;10.93;;;0.20;9.50;;;;;;5105876;28;20215;-80
2022/11/20 10:09:07;;;;;;;18.50;10.57;;;0.40;1.00;;;;;;5096365;28;20300;-80
2022/11/20 10:11:45;;;;;;;18.80;11.17;;;0.70;1.00;;;;;;5104338;28;20201;-79
2022/11/20 10:14:22;;;;;;;21.53;10.73;;;0.90;1.00;;;;;;5102154;28;20209;-79
2022/11/20 10:17:03;;;;;;;18.20;9.50;;;1.10;1.00;;;;;;5100822;28;20197;-80
2022/11/20 10:19:48;;;;;;;19.50;10.00;;;1.20;1.00;;;;;;5097365;28;20223;-79
2022/11/20 10:22:27;;;;;;;22.30;11.10;;;1.30;1.00;;;;;;5094709;28;20206;-80
2022/11/20 10:24:57;;;;;;;22.20;10.67;;;1.20;1.00;;;;;;5087341;28;20200;-80
2022/11/20 10:28:05;;;;;;;18.43;9.87;;;1.40;1.00;;;;;;5097993;28;20252;-78
2022/11/20 10:30:37;;;;;;;21.60;10.67;;;1.20;1.00;;;;;;5094283;28;20192;-78
2022/11/20 10:33:14;;;;;;;20.93;10.30;;;1.30;1.00;;;;;;5104959;28;20721;-79
2022/11/20 10:35:44;;;;;;;19.57;10.40;;;1.10;1.00;;;;;;5104278;28;20231;-79
2022/11/20 10:38:17;;;;;;;20.80;10.30;;;1.20;1.00;;;;;;5104126;28;20229;-79
2022/11/20 10:40:46;;;;;;;18.73;9.37;;;1.30;1.00;;;;;;5098403;28;20198;-79
2022/11/20 10:43:17;;;;;;;21.03;10.13;;;1.20;1.00;;;;;;5109149;28;20201;-79
2022/11/20 10:45:51;;;;;;;20.67;10.40;;;1.20;1.00;;;;;;5103542;28;20201;-79
2022/11/20 10:48:23;;;;;;;23.20;11.43;;;1.20;1.00;;;;;;5104657;28;20244;-79
2022/11/20 10:51:05;;;;;;;21.10;10.30;;;1.20;1.00;;;;;;5096382;28;20210;-79
2022/11/20 10:53:46;;;;;;;20.03;10.40;;;1.30;1.00;;;;;;5100980;28;20284;-79
2022/11/20 10:56:21;;;;;;;20.83;10.13;;;1.00;99.90;;;;;;5097199;28;20249;-78
2022/11/20 10:59:02;;;;;;;22.33;11.03;;;1.10;99.90;;;;;;5094518;28;20235;-78
2022/11/20 11:01:28;;;;;;;19.50;10.03;;;1.20;99.90;;;;;;5099085;28;20233;-78
2022/11/20 11:03:59;;;;;;;23.27;11.67;;;1.30;99.90;;;;;;5101989;28;20198;-79
2022/11/20 11:06:34;;;;;;;24.37;12.33;;;1.20;1.00;;;;;;5093820;28;20586;-79
2022/11/20 11:09:09;;;;;;;21.83;12.10;;;1.20;1.00;;;;;;5098316;28;20217;-79
2022/11/20 11:11:38;;;;;;;21.27;11.70;;;1.10;1.00;;;;;;5088871;28;20228;-79
2022/11/20 11:14:07;;;;;;;20.23;10.73;;;1.10;1.00;;;;;;5090411;28;20205;-79
2022/11/20 11:16:33;;;;;;;20.97;11.53;;;1.10;1.00;;;;;;5093482;28;20305;-79
2022/11/20 11:19:13;;;;;;;21.50;10.37;;;1.20;1.00;;;;;;5102727;28;20228;-79
2022/11/20 11:21:47;;;;;;;19.27;10.40;;;1.00;1.00;;;;;;5098578;28;20221;-79
2022/11/20 11:24:22;;;;;;;20.07;10.77;;;1.00;1.00;;;;;;5097472;28;20285;-80
2022/11/20 11:26:56;;;;;;;21.17;11.70;;;1.10;1.00;;;;;;5099490;28;20597;-79
2022/11/20 11:29:23;;;;;;;22.90;10.43;;;1.00;1.00;;;;;;5096482;28;20231;-80
2022/11/20 11:31:50;;;;;;;20.90;10.53;;;1.10;1.00;;;;;;5113127;28;20231;-80
2022/11/20 11:34:18;;;;;;;22.10;11.97;;;1.10;1.00;;;;;;5094507;28;20288;-80
2022/11/20 11:36:55;;;;;;;20.87;12.20;;;1.30;1.00;;;;;;5096669;28;20240;-79
2022/11/20 11:39:22;;;;;;;19.27;9.87;;;1.20;1.00;;;;;;5089133;28;20940;-79
2022/11/20 11:41:50;;;;;;;19.47;9.77;;;1.20;1.00;;;;;;5092616;28;20265;-79
2022/11/20 11:47:06;;;;;;;19.63;10.17;;;1.30;1.00;;;;;;5104593;28;20236;-79
2022/11/20 11:49:34;;;;;;;20.67;10.80;;;1.20;1.00;;;;;;5100053;28;20651;-79
2022/11/20 11:52:06;;;;;;;21.50;10.60;;;1.20;1.00;;;;;;5094479;28;20213;-79
2022/11/20 11:54:39;;;;;;;19.63;11.70;;;1.10;1.00;;;;;;5092610;28;20654;-79
2022/11/20 11:57:12;;;;;;;18.10;10.23;;;1.20;1.00;;;;;;5098670;28;20224;-79
2022/11/20 11:59:52;;;;;;;19.73;11.33;;;1.30;1.00;;;;;;5100539;28;20301;-79
2022/11/20 12:02:32;;;;;;;20.13;10.63;;;2.00;1.00;;;;;;5093382;28;20209;-79
2022/11/20 12:05:07;;;;;;;21.13;10.80;;;2.00;99.90;;;;;;5091994;28;20198;-79
2022/11/20 12:07:42;;;;;;;19.60;10.20;;;1.80;1.00;;;;;;5099241;28;20217;-78
2022/11/20 12:10:17;;;;;;;23.13;11.37;;;2.70;1.00;;;;;;5094734;28;20203;-78
2022/11/20 12:12:48;;;;;;;20.07;10.70;;;3.00;99.90;;;;;;5095155;28;20205;-78
2022/11/20 12:15:29;;;;;;;20.13;10.50;;;2.50;1.00;;;;;;5102205;28;20221;-79
2022/11/20 12:17:56;;;;;;;19.97;9.93;;;2.20;1.00;;;;;;5092767;28;20312;-80
2022/11/20 12:20:28;;;;;;;19.40;10.30;;;2.00;1.00;;;;;;5095760;28;20193;-78
2022/11/20 12:23:01;;;;;;;19.90;10.50;;;2.00;1.00;;;;;;5090465;28;20198;-78
2022/11/20 12:25:31;;;;;;;22.53;10.63;;;1.90;1.00;;;;;;5092074;28;20208;-78
2022/11/20 12:28:17;;;;;;;20.60;10.73;;;1.70;25.70;;;;;;5096153;28;20229;-79
2022/11/20 12:30:54;;;;;;;23.33;11.10;;;1.70;99.90;;;;;;5102664;28;20197;-79
2022/11/20 12:33:46;;;;;;;20.87;10.77;;;2.10;99.90;;;;;;5091610;28;20205;-79
2022/11/20 12:36:24;;;;;;;21.07;11.53;;;3.10;1.00;;;;;;5099391;28;20252;-79
2022/11/20 12:39:18;;;;;;;21.40;11.20;;;3.00;47.60;;;;;;5107875;28;20222;-79
2022/11/20 12:45:11;;;;;;;19.83;11.03;;;2.60;1.00;;;;;;5096994;28;20204;-79
2022/11/20 12:47:53;;;;;;;20.77;11.13;;;2.40;99.90;;;;;;5089887;28;20232;-79
2022/11/20 12:50:31;;;;;;;22.53;11.33;;;2.20;99.90;;;;;;5091416;28;20202;-79
2022/11/20 12:53:04;;;;;;;21.27;10.40;;;2.10;99.90;;;;;;5100443;28;20205;-78
2022/11/20 12:55:43;;;;;;;24.43;11.43;;;2.10;1.00;;;;;;5092346;28;20225;-80
2022/11/20 12:58:19;;;;;;;24.37;11.80;;;2.20;99.90;;;;;;5097461;28;20252;-79